sensor_id;sensor_type;location;lat;lon;timestamp;P1;durP1;ratioP1;P2;durP2;ratioP2
10031;SDS011;5056;44.272;19.892;2023-08-20T00:00:11;17.13;;;15.93;;
10031;SDS011;5056;44.272;19.892;2023-08-20T00:02:41;17.20;;;15.73;;
10031;SDS011;5056;44.272;19.892;2023-08-20T00:05:10;17.13;;;15.77;;
10031;SDS011;5056;44.272;19.892;2023-08-20T00:07:39;17.55;;;16.00;;
10031;SDS011;5056;44.272;19.892;2023-08-20T00:10:09;17.15;;;15.73;;
10031;SDS011;5056;44.272;19.892;2023-08-20T00:12:39;17.63;;;16.05;;
10031;SDS011;5056;44.272;19.892;2023-08-20T00:15:09;18.25;;;16.75;;
10031;SDS011;5056;44.272;19.892;2023-08-20T00:17:36;17.17;;;15.52;;
10031;SDS011;5056;44.272;19.892;2023-08-20T00:20:04;16.83;;;15.43;;
10031;SDS011;5056;44.272;19.892;2023-08-20T00:22:37;15.15;;;13.95;;
10031;SDS011;5056;44.272;19.892;2023-08-20T00:25:07;15.73;;;14.48;;
10031;SDS011;5056;44.272;19.892;2023-08-20T00:27:35;16.33;;;14.95;;
10031;SDS011;5056;44.272;19.892;2023-08-20T00:30:07;17.25;;;15.68;;
10031;SDS011;5056;44.272;19.892;2023-08-20T00:32:36;16.45;;;15.15;;
10031;SDS011;5056;44.272;19.892;2023-08-20T00:35:07;15.75;;;14.43;;
10031;SDS011;5056;44.272;19.892;2023-08-20T00:37:34;16.92;;;15.45;;
10031;SDS011;5056;44.272;19.892;2023-08-20T00:40:07;17.00;;;15.52;;
10031;SDS011;5056;44.272;19.892;2023-08-20T00:42:36;16.33;;;14.95;;
10031;SDS011;5056;44.272;19.892;2023-08-20T00:45:04;17.08;;;15.73;;
10031;SDS011;5056;44.272;19.892;2023-08-20T00:48:01;15.45;;;14.30;;
10031;SDS011;5056;44.272;19.892;2023-08-20T00:50:29;16.02;;;14.73;;
10031;SDS011;5056;44.272;19.892;2023-08-20T00:52:59;15.88;;;14.68;;
10031;SDS011;5056;44.272;19.892;2023-08-20T00:55:40;16.60;;;15.05;;
10031;SDS011;5056;44.272;19.892;2023-08-20T00:58:23;16.23;;;14.65;;
10031;SDS011;5056;44.272;19.892;2023-08-20T01:00:54;15.88;;;14.48;;
10031;SDS011;5056;44.272;19.892;2023-08-20T01:03:27;15.73;;;14.52;;
10031;SDS011;5056;44.272;19.892;2023-08-20T01:05:58;15.95;;;14.57;;
10031;SDS011;5056;44.272;19.892;2023-08-20T01:08:42;15.70;;;14.30;;
10031;SDS011;5056;44.272;19.892;2023-08-20T01:11:12;15.52;;;14.25;;
10031;SDS011;5056;44.272;19.892;2023-08-20T01:13:43;16.45;;;14.95;;
10031;SDS011;5056;44.272;19.892;2023-08-20T01:16:11;17.08;;;15.52;;
10031;SDS011;5056;44.272;19.892;2023-08-20T01:18:40;16.45;;;14.95;;
10031;SDS011;5056;44.272;19.892;2023-08-20T01:21:10;15.55;;;14.32;;
10031;SDS011;5056;44.272;19.892;2023-08-20T01:23:50;17.70;;;16.20;;
10031;SDS011;5056;44.272;19.892;2023-08-20T01:29:32;16.60;;;15.00;;
10031;SDS011;5056;44.272;19.892;2023-08-20T01:32:00;17.10;;;15.70;;
10031;SDS011;5056;44.272;19.892;2023-08-20T01:34:27;16.23;;;14.85;;
10031;SDS011;5056;44.272;19.892;2023-08-20T01:36:55;16.85;;;15.50;;
10031;SDS011;5056;44.272;19.892;2023-08-20T01:39:22;16.35;;;15.05;;
10031;SDS011;5056;44.272;19.892;2023-08-20T01:41:49;16.20;;;14.82;;
10031;SDS011;5056;44.272;19.892;2023-08-20T01:44:16;16.77;;;15.45;;
10031;SDS011;5056;44.272;19.892;2023-08-20T01:46:45;16.13;;;14.93;;
10031;SDS011;5056;44.272;19.892;2023-08-20T01:49:12;16.40;;;15.10;;
10031;SDS011;5056;44.272;19.892;2023-08-20T01:51:39;17.17;;;15.65;;
10031;SDS011;5056;44.272;19.892;2023-08-20T01:54:06;17.02;;;15.50;;
10031;SDS011;5056;44.272;19.892;2023-08-20T01:56:33;17.80;;;16.38;;
10031;SDS011;5056;44.272;19.892;2023-08-20T01:59:00;19.00;;;16.92;;
10031;SDS011;5056;44.272;19.892;2023-08-20T02:01:28;17.40;;;15.85;;
10031;SDS011;5056;44.272;19.892;2023-08-20T02:03:56;16.48;;;15.07;;
10031;SDS011;5056;44.272;19.892;2023-08-20T02:06:23;16.55;;;15.35;;
10031;SDS011;5056;44.272;19.892;2023-08-20T02:08:50;16.77;;;15.27;;
10031;SDS011;5056;44.272;19.892;2023-08-20T02:11:18;18.02;;;16.25;;
10031;SDS011;5056;44.272;19.892;2023-08-20T02:13:58;16.15;;;14.93;;
10031;SDS011;5056;44.272;19.892;2023-08-20T02:16:30;17.23;;;15.77;;
10031;SDS011;5056;44.272;19.892;2023-08-20T02:19:03;18.27;;;16.75;;
10031;SDS011;5056;44.272;19.892;2023-08-20T02:21:31;18.55;;;16.70;;
10031;SDS011;5056;44.272;19.892;2023-08-20T02:23:59;16.80;;;15.50;;
10031;SDS011;5056;44.272;19.892;2023-08-20T02:26:28;17.33;;;15.85;;
10031;SDS011;5056;44.272;19.892;2023-08-20T02:28:57;17.00;;;15.70;;
10031;SDS011;5056;44.272;19.892;2023-08-20T02:31:24;16.77;;;15.52;;
10031;SDS011;5056;44.272;19.892;2023-08-20T02:33:56;17.02;;;15.52;;
10031;SDS011;5056;44.272;19.892;2023-08-20T02:36:24;17.40;;;15.90;;
10031;SDS011;5056;44.272;19.892;2023-08-20T02:38:51;17.90;;;16.30;;
10031;SDS011;5056;44.272;19.892;2023-08-20T02:41:25;18.52;;;16.92;;
10031;SDS011;5056;44.272;19.892;2023-08-20T02:43:53;17.63;;;16.23;;
10031;SDS011;5056;44.272;19.892;2023-08-20T02:46:19;17.02;;;15.70;;
10031;SDS011;5056;44.272;19.892;2023-08-20T02:48:47;17.50;;;15.75;;
10031;SDS011;5056;44.272;19.892;2023-08-20T02:51:15;16.92;;;15.63;;
10031;SDS011;5056;44.272;19.892;2023-08-20T02:53:43;16.70;;;15.27;;
10031;SDS011;5056;44.272;19.892;2023-08-20T02:56:10;17.08;;;15.68;;
10031;SDS011;5056;44.272;19.892;2023-08-20T03:01:26;15.88;;;14.40;;
10031;SDS011;5056;44.272;19.892;2023-08-20T03:03:53;15.65;;;14.25;;
10031;SDS011;5056;44.272;19.892;2023-08-20T03:06:21;16.30;;;14.82;;
10031;SDS011;5056;44.272;19.892;2023-08-20T03:12:15;15.98;;;14.73;;
10031;SDS011;5056;44.272;19.892;2023-08-20T03:14:43;17.48;;;15.90;;
10031;SDS011;5056;44.272;19.892;2023-08-20T03:17:10;16.58;;;15.02;;
10031;SDS011;5056;44.272;19.892;2023-08-20T03:22:56;17.00;;;15.50;;
10031;SDS011;5056;44.272;19.892;2023-08-20T03:25:23;15.77;;;14.40;;
10031;SDS011;5056;44.272;19.892;2023-08-20T03:27:53;16.70;;;15.30;;
10031;SDS011;5056;44.272;19.892;2023-08-20T03:30:20;16.52;;;15.23;;
10031;SDS011;5056;44.272;19.892;2023-08-20T03:32:48;15.95;;;14.43;;
10031;SDS011;5056;44.272;19.892;2023-08-20T03:35:16;16.65;;;15.05;;
10031;SDS011;5056;44.272;19.892;2023-08-20T03:37:43;15.07;;;13.73;;
10031;SDS011;5056;44.272;19.892;2023-08-20T03:40:12;16.02;;;14.63;;
10031;SDS011;5056;44.272;19.892;2023-08-20T03:42:39;15.25;;;13.85;;
10031;SDS011;5056;44.272;19.892;2023-08-20T03:45:09;15.77;;;14.23;;
10031;SDS011;5056;44.272;19.892;2023-08-20T03:47:37;15.40;;;14.20;;
10031;SDS011;5056;44.272;19.892;2023-08-20T03:50:05;16.05;;;14.40;;
10031;SDS011;5056;44.272;19.892;2023-08-20T03:52:34;15.43;;;14.05;;
10031;SDS011;5056;44.272;19.892;2023-08-20T03:55:01;16.30;;;14.80;;
10031;SDS011;5056;44.272;19.892;2023-08-20T03:57:28;15.35;;;14.15;;
10031;SDS011;5056;44.272;19.892;2023-08-20T03:59:57;26.27;;;15.07;;
10031;SDS011;5056;44.272;19.892;2023-08-20T04:02:28;16.05;;;14.32;;
10031;SDS011;5056;44.272;19.892;2023-08-20T04:04:57;16.02;;;14.45;;
10031;SDS011;5056;44.272;19.892;2023-08-20T04:07:24;15.60;;;14.00;;
10031;SDS011;5056;44.272;19.892;2023-08-20T04:09:51;15.73;;;14.20;;
10031;SDS011;5056;44.272;19.892;2023-08-20T04:12:18;15.48;;;14.18;;
10031;SDS011;5056;44.272;19.892;2023-08-20T04:14:45;15.48;;;14.15;;
10031;SDS011;5056;44.272;19.892;2023-08-20T04:17:12;16.85;;;14.98;;
10031;SDS011;5056;44.272;19.892;2023-08-20T04:19:41;16.45;;;14.95;;
10031;SDS011;5056;44.272;19.892;2023-08-20T04:22:08;16.35;;;14.45;;
10031;SDS011;5056;44.272;19.892;2023-08-20T04:24:35;17.25;;;15.50;;
10031;SDS011;5056;44.272;19.892;2023-08-20T04:27:11;16.92;;;15.52;;
10031;SDS011;5056;44.272;19.892;2023-08-20T04:29:42;15.30;;;13.90;;
10031;SDS011;5056;44.272;19.892;2023-08-20T04:34:44;15.73;;;14.45;;
10031;SDS011;5056;44.272;19.892;2023-08-20T04:37:14;16.65;;;14.40;;
10031;SDS011;5056;44.272;19.892;2023-08-20T04:39:41;17.05;;;15.35;;
10031;SDS011;5056;44.272;19.892;2023-08-20T04:42:08;16.95;;;15.35;;
10031;SDS011;5056;44.272;19.892;2023-08-20T04:44:36;16.38;;;14.93;;
10031;SDS011;5056;44.272;19.892;2023-08-20T04:47:03;16.83;;;15.20;;
10031;SDS011;5056;44.272;19.892;2023-08-20T04:49:30;17.15;;;15.50;;
10031;SDS011;5056;44.272;19.892;2023-08-20T04:51:58;16.23;;;14.63;;
10031;SDS011;5056;44.272;19.892;2023-08-20T04:54:25;14.98;;;13.77;;
10031;SDS011;5056;44.272;19.892;2023-08-20T04:56:52;15.93;;;14.65;;
10031;SDS011;5056;44.272;19.892;2023-08-20T04:59:19;16.27;;;14.88;;
10031;SDS011;5056;44.272;19.892;2023-08-20T05:01:46;16.13;;;14.75;;
10031;SDS011;5056;44.272;19.892;2023-08-20T05:04:13;16.13;;;14.73;;
10031;SDS011;5056;44.272;19.892;2023-08-20T05:06:40;16.40;;;14.93;;
10031;SDS011;5056;44.272;19.892;2023-08-20T05:09:10;16.10;;;14.68;;
10031;SDS011;5056;44.272;19.892;2023-08-20T05:11:37;16.73;;;15.13;;
10031;SDS011;5056;44.272;19.892;2023-08-20T05:14:04;17.40;;;15.82;;
10031;SDS011;5056;44.272;19.892;2023-08-20T05:16:31;17.50;;;16.08;;
10031;SDS011;5056;44.272;19.892;2023-08-20T05:18:58;16.83;;;15.48;;
10031;SDS011;5056;44.272;19.892;2023-08-20T05:21:25;16.52;;;14.95;;
10031;SDS011;5056;44.272;19.892;2023-08-20T05:23:52;16.58;;;15.20;;
10031;SDS011;5056;44.272;19.892;2023-08-20T05:26:21;16.25;;;14.85;;
10031;SDS011;5056;44.272;19.892;2023-08-20T05:28:48;17.25;;;15.63;;
10031;SDS011;5056;44.272;19.892;2023-08-20T05:31:15;16.65;;;15.38;;
10031;SDS011;5056;44.272;19.892;2023-08-20T05:33:42;17.00;;;15.50;;
10031;SDS011;5056;44.272;19.892;2023-08-20T05:36:10;16.55;;;15.00;;
10031;SDS011;5056;44.272;19.892;2023-08-20T05:38:37;16.55;;;15.07;;
10031;SDS011;5056;44.272;19.892;2023-08-20T05:41:05;17.52;;;16.02;;
10031;SDS011;5056;44.272;19.892;2023-08-20T05:43:35;16.60;;;15.20;;
10031;SDS011;5056;44.272;19.892;2023-08-20T05:46:02;16.02;;;14.82;;
10031;SDS011;5056;44.272;19.892;2023-08-20T05:48:31;15.13;;;13.88;;
10031;SDS011;5056;44.272;19.892;2023-08-20T05:50:58;14.85;;;13.70;;
10031;SDS011;5056;44.272;19.892;2023-08-20T05:53:24;15.80;;;14.57;;
10031;SDS011;5056;44.272;19.892;2023-08-20T05:55:52;16.73;;;15.32;;
10031;SDS011;5056;44.272;19.892;2023-08-20T05:58:19;16.67;;;15.05;;
10031;SDS011;5056;44.272;19.892;2023-08-20T06:00:47;16.90;;;15.35;;
10031;SDS011;5056;44.272;19.892;2023-08-20T06:03:14;16.45;;;15.15;;
10031;SDS011;5056;44.272;19.892;2023-08-20T06:05:41;16.67;;;15.27;;
10031;SDS011;5056;44.272;19.892;2023-08-20T06:08:08;16.02;;;14.65;;
10031;SDS011;5056;44.272;19.892;2023-08-20T06:10:36;17.27;;;15.60;;
10031;SDS011;5056;44.272;19.892;2023-08-20T06:13:03;16.23;;;14.88;;
10031;SDS011;5056;44.272;19.892;2023-08-20T06:15:30;15.75;;;14.35;;
10031;SDS011;5056;44.272;19.892;2023-08-20T06:17:59;16.17;;;14.70;;
10031;SDS011;5056;44.272;19.892;2023-08-20T06:20:26;16.13;;;14.82;;
10031;SDS011;5056;44.272;19.892;2023-08-20T06:22:53;16.77;;;15.38;;
10031;SDS011;5056;44.272;19.892;2023-08-20T06:25:20;17.08;;;15.38;;
10031;SDS011;5056;44.272;19.892;2023-08-20T06:27:47;18.75;;;16.88;;
10031;SDS011;5056;44.272;19.892;2023-08-20T06:30:15;19.30;;;17.45;;
10031;SDS011;5056;44.272;19.892;2023-08-20T06:32:43;18.27;;;16.67;;
10031;SDS011;5056;44.272;19.892;2023-08-20T06:35:13;18.08;;;16.58;;
10031;SDS011;5056;44.272;19.892;2023-08-20T06:37:39;17.48;;;15.98;;
10031;SDS011;5056;44.272;19.892;2023-08-20T06:40:07;17.80;;;16.20;;
10031;SDS011;5056;44.272;19.892;2023-08-20T06:42:36;18.23;;;16.30;;
10031;SDS011;5056;44.272;19.892;2023-08-20T06:45:03;18.90;;;17.20;;
10031;SDS011;5056;44.272;19.892;2023-08-20T06:47:33;18.55;;;17.05;;
10031;SDS011;5056;44.272;19.892;2023-08-20T06:50:01;18.05;;;16.65;;
10031;SDS011;5056;44.272;19.892;2023-08-20T06:52:32;18.65;;;17.13;;
10031;SDS011;5056;44.272;19.892;2023-08-20T06:54:59;18.15;;;16.75;;
10031;SDS011;5056;44.272;19.892;2023-08-20T06:57:26;17.88;;;16.50;;
10031;SDS011;5056;44.272;19.892;2023-08-20T06:59:53;21.88;;;19.60;;
10031;SDS011;5056;44.272;19.892;2023-08-20T07:02:20;20.17;;;18.15;;
10031;SDS011;5056;44.272;19.892;2023-08-20T07:04:48;18.17;;;16.77;;
10031;SDS011;5056;44.272;19.892;2023-08-20T07:07:15;20.80;;;19.05;;
10031;SDS011;5056;44.272;19.892;2023-08-20T07:09:43;20.15;;;17.40;;
10031;SDS011;5056;44.272;19.892;2023-08-20T07:12:10;18.10;;;16.67;;
10031;SDS011;5056;44.272;19.892;2023-08-20T07:14:37;17.13;;;15.85;;
10031;SDS011;5056;44.272;19.892;2023-08-20T07:17:04;15.95;;;14.57;;
10031;SDS011;5056;44.272;19.892;2023-08-20T07:19:31;15.65;;;14.35;;
10031;SDS011;5056;44.272;19.892;2023-08-20T07:22:00;16.33;;;14.85;;
10031;SDS011;5056;44.272;19.892;2023-08-20T07:24:27;17.08;;;15.68;;
10031;SDS011;5056;44.272;19.892;2023-08-20T07:26:57;15.90;;;14.68;;
10031;SDS011;5056;44.272;19.892;2023-08-20T07:29:26;16.67;;;15.02;;
10031;SDS011;5056;44.272;19.892;2023-08-20T07:31:55;16.75;;;15.20;;
10031;SDS011;5056;44.272;19.892;2023-08-20T07:34:28;15.80;;;14.38;;
10031;SDS011;5056;44.272;19.892;2023-08-20T07:36:55;16.38;;;15.07;;
10031;SDS011;5056;44.272;19.892;2023-08-20T07:39:23;14.70;;;13.60;;
10031;SDS011;5056;44.272;19.892;2023-08-20T07:41:50;15.95;;;14.57;;
10031;SDS011;5056;44.272;19.892;2023-08-20T07:44:19;17.85;;;15.23;;
10031;SDS011;5056;44.272;19.892;2023-08-20T07:46:46;16.30;;;14.77;;
10031;SDS011;5056;44.272;19.892;2023-08-20T07:49:13;15.70;;;14.35;;
10031;SDS011;5056;44.272;19.892;2023-08-20T07:51:40;14.45;;;13.30;;
10031;SDS011;5056;44.272;19.892;2023-08-20T07:54:07;14.50;;;13.40;;
10031;SDS011;5056;44.272;19.892;2023-08-20T07:56:34;13.48;;;12.57;;
10031;SDS011;5056;44.272;19.892;2023-08-20T07:59:01;14.25;;;13.27;;
10031;SDS011;5056;44.272;19.892;2023-08-20T08:01:31;12.57;;;11.68;;
10031;SDS011;5056;44.272;19.892;2023-08-20T08:03:58;13.90;;;12.80;;
10031;SDS011;5056;44.272;19.892;2023-08-20T08:06:26;13.32;;;12.20;;
10031;SDS011;5056;44.272;19.892;2023-08-20T08:08:53;13.88;;;12.85;;
10031;SDS011;5056;44.272;19.892;2023-08-20T08:11:21;11.98;;;10.90;;
10031;SDS011;5056;44.272;19.892;2023-08-20T08:13:48;12.85;;;11.85;;
10031;SDS011;5056;44.272;19.892;2023-08-20T08:16:16;11.07;;;10.25;;
10031;SDS011;5056;44.272;19.892;2023-08-20T08:18:45;284.23;;;25.63;;
10031;SDS011;5056;44.272;19.892;2023-08-20T08:21:12;18.23;;;11.65;;
10031;SDS011;5056;44.272;19.892;2023-08-20T08:23:39;12.95;;;11.75;;
10031;SDS011;5056;44.272;19.892;2023-08-20T08:26:07;13.32;;;12.25;;
10031;SDS011;5056;44.272;19.892;2023-08-20T08:28:33;13.20;;;12.20;;
10031;SDS011;5056;44.272;19.892;2023-08-20T08:31:00;12.80;;;11.90;;
10031;SDS011;5056;44.272;19.892;2023-08-20T08:33:27;12.50;;;11.50;;
10031;SDS011;5056;44.272;19.892;2023-08-20T08:36:00;13.15;;;12.15;;
10031;SDS011;5056;44.272;19.892;2023-08-20T08:38:30;14.23;;;12.98;;
10031;SDS011;5056;44.272;19.892;2023-08-20T08:41:01;14.43;;;13.32;;
10031;SDS011;5056;44.272;19.892;2023-08-20T08:43:29;14.25;;;12.82;;
10031;SDS011;5056;44.272;19.892;2023-08-20T08:45:56;14.82;;;13.48;;
10031;SDS011;5056;44.272;19.892;2023-08-20T08:48:24;15.60;;;14.02;;
10031;SDS011;5056;44.272;19.892;2023-08-20T08:50:51;14.02;;;12.85;;
10031;SDS011;5056;44.272;19.892;2023-08-20T08:53:25;14.18;;;12.98;;
10031;SDS011;5056;44.272;19.892;2023-08-20T08:55:52;14.05;;;12.85;;
10031;SDS011;5056;44.272;19.892;2023-08-20T08:58:19;15.13;;;13.85;;
10031;SDS011;5056;44.272;19.892;2023-08-20T09:00:48;15.02;;;13.65;;
10031;SDS011;5056;44.272;19.892;2023-08-20T09:03:15;14.65;;;13.25;;
10031;SDS011;5056;44.272;19.892;2023-08-20T09:08:30;14.65;;;13.32;;
10031;SDS011;5056;44.272;19.892;2023-08-20T09:10:58;15.18;;;13.80;;
10031;SDS011;5056;44.272;19.892;2023-08-20T09:13:32;13.30;;;12.35;;
10031;SDS011;5056;44.272;19.892;2023-08-20T09:16:02;13.63;;;12.40;;
10031;SDS011;5056;44.272;19.892;2023-08-20T09:18:30;14.38;;;13.18;;
10031;SDS011;5056;44.272;19.892;2023-08-20T09:20:57;13.85;;;12.85;;
10031;SDS011;5056;44.272;19.892;2023-08-20T09:23:28;13.70;;;12.77;;
10031;SDS011;5056;44.272;19.892;2023-08-20T09:25:56;13.60;;;12.50;;
10031;SDS011;5056;44.272;19.892;2023-08-20T09:28:24;12.77;;;11.52;;
10031;SDS011;5056;44.272;19.892;2023-08-20T09:30:55;13.40;;;12.38;;
10031;SDS011;5056;44.272;19.892;2023-08-20T09:33:23;13.60;;;12.30;;
10031;SDS011;5056;44.272;19.892;2023-08-20T09:35:51;12.73;;;11.70;;
10031;SDS011;5056;44.272;19.892;2023-08-20T09:38:19;11.80;;;10.88;;
10031;SDS011;5056;44.272;19.892;2023-08-20T09:40:49;12.10;;;11.30;;
10031;SDS011;5056;44.272;19.892;2023-08-20T09:43:17;13.13;;;12.13;;
10031;SDS011;5056;44.272;19.892;2023-08-20T09:48:33;12.95;;;11.73;;
10031;SDS011;5056;44.272;19.892;2023-08-20T09:51:01;12.45;;;11.55;;
10031;SDS011;5056;44.272;19.892;2023-08-20T09:53:37;12.93;;;11.93;;
10031;SDS011;5056;44.272;19.892;2023-08-20T09:56:09;12.82;;;11.73;;
10031;SDS011;5056;44.272;19.892;2023-08-20T09:58:37;11.95;;;11.07;;
10031;SDS011;5056;44.272;19.892;2023-08-20T10:01:04;14.35;;;11.75;;
10031;SDS011;5056;44.272;19.892;2023-08-20T10:10:19;12.00;;;11.00;;
10031;SDS011;5056;44.272;19.892;2023-08-20T10:12:47;12.15;;;11.27;;
10031;SDS011;5056;44.272;19.892;2023-08-20T10:15:15;13.38;;;12.07;;
10031;SDS011;5056;44.272;19.892;2023-08-20T10:17:43;12.38;;;11.57;;
10031;SDS011;5056;44.272;19.892;2023-08-20T10:20:12;11.70;;;10.85;;
10031;SDS011;5056;44.272;19.892;2023-08-20T10:22:41;11.57;;;10.68;;
10031;SDS011;5056;44.272;19.892;2023-08-20T10:25:10;11.75;;;10.85;;
10031;SDS011;5056;44.272;19.892;2023-08-20T10:27:39;10.55;;;9.82;;
10031;SDS011;5056;44.272;19.892;2023-08-20T10:30:11;10.98;;;10.25;;
10031;SDS011;5056;44.272;19.892;2023-08-20T10:32:43;10.40;;;9.50;;
10031;SDS011;5056;44.272;19.892;2023-08-20T10:35:11;10.93;;;10.02;;
10031;SDS011;5056;44.272;19.892;2023-08-20T10:37:44;10.70;;;9.80;;
10031;SDS011;5056;44.272;19.892;2023-08-20T10:40:46;10.07;;;9.38;;
10031;SDS011;5056;44.272;19.892;2023-08-20T10:43:26;10.45;;;9.15;;
10031;SDS011;5056;44.272;19.892;2023-08-20T10:46:08;10.73;;;9.90;;
10031;SDS011;5056;44.272;19.892;2023-08-20T10:48:40;10.27;;;9.43;;
10031;SDS011;5056;44.272;19.892;2023-08-20T10:51:12;11.20;;;10.13;;
10031;SDS011;5056;44.272;19.892;2023-08-20T10:53:40;10.10;;;9.40;;
10031;SDS011;5056;44.272;19.892;2023-08-20T10:56:15;10.68;;;9.73;;
10031;SDS011;5056;44.272;19.892;2023-08-20T10:58:44;10.13;;;9.35;;
10031;SDS011;5056;44.272;19.892;2023-08-20T11:01:21;9.95;;;9.07;;
10031;SDS011;5056;44.272;19.892;2023-08-20T11:03:49;9.00;;;8.20;;
10031;SDS011;5056;44.272;19.892;2023-08-20T11:06:18;8.93;;;7.90;;
10031;SDS011;5056;44.272;19.892;2023-08-20T11:08:45;8.93;;;7.95;;
10031;SDS011;5056;44.272;19.892;2023-08-20T11:11:12;11.77;;;8.50;;
10031;SDS011;5056;44.272;19.892;2023-08-20T11:13:40;9.45;;;8.55;;
10031;SDS011;5056;44.272;19.892;2023-08-20T11:16:08;9.55;;;8.70;;
10031;SDS011;5056;44.272;19.892;2023-08-20T11:18:38;9.35;;;8.55;;
10031;SDS011;5056;44.272;19.892;2023-08-20T11:21:06;8.45;;;7.80;;
10031;SDS011;5056;44.272;19.892;2023-08-20T11:23:35;9.38;;;8.68;;
10031;SDS011;5056;44.272;19.892;2023-08-20T11:26:05;9.35;;;8.48;;
10031;SDS011;5056;44.272;19.892;2023-08-20T11:28:33;8.88;;;8.18;;
10031;SDS011;5056;44.272;19.892;2023-08-20T11:31:00;9.50;;;8.80;;
10031;SDS011;5056;44.272;19.892;2023-08-20T11:33:30;10.18;;;9.20;;
10031;SDS011;5056;44.272;19.892;2023-08-20T11:39:09;9.85;;;9.10;;
10031;SDS011;5056;44.272;19.892;2023-08-20T11:41:38;9.25;;;8.27;;
10031;SDS011;5056;44.272;19.892;2023-08-20T11:44:08;9.40;;;8.48;;
10031;SDS011;5056;44.272;19.892;2023-08-20T11:46:42;9.23;;;8.52;;
10031;SDS011;5056;44.272;19.892;2023-08-20T11:49:11;9.10;;;8.40;;
10031;SDS011;5056;44.272;19.892;2023-08-20T11:51:41;9.88;;;9.02;;
10031;SDS011;5056;44.272;19.892;2023-08-20T11:54:13;9.50;;;8.73;;
10031;SDS011;5056;44.272;19.892;2023-08-20T11:56:42;9.13;;;8.32;;
10031;SDS011;5056;44.272;19.892;2023-08-20T11:59:10;9.52;;;8.82;;
10031;SDS011;5056;44.272;19.892;2023-08-20T12:01:40;9.85;;;9.05;;
10031;SDS011;5056;44.272;19.892;2023-08-20T12:04:08;8.93;;;8.23;;
10031;SDS011;5056;44.272;19.892;2023-08-20T12:09:48;9.18;;;8.57;;
10031;SDS011;5056;44.272;19.892;2023-08-20T12:12:22;10.35;;;9.35;;
10031;SDS011;5056;44.272;19.892;2023-08-20T12:14:50;8.75;;;7.95;;
10031;SDS011;5056;44.272;19.892;2023-08-20T12:17:28;8.68;;;8.02;;
10031;SDS011;5056;44.272;19.892;2023-08-20T12:19:56;8.55;;;7.88;;
10031;SDS011;5056;44.272;19.892;2023-08-20T12:22:35;7.97;;;7.35;;
10031;SDS011;5056;44.272;19.892;2023-08-20T12:27:48;7.80;;;7.20;;
10031;SDS011;5056;44.272;19.892;2023-08-20T12:30:15;8.23;;;7.50;;
10031;SDS011;5056;44.272;19.892;2023-08-20T12:32:43;9.35;;;8.52;;
10031;SDS011;5056;44.272;19.892;2023-08-20T12:35:13;8.38;;;7.68;;
10031;SDS011;5056;44.272;19.892;2023-08-20T12:37:43;8.57;;;7.88;;
10031;SDS011;5056;44.272;19.892;2023-08-20T12:40:12;7.90;;;7.20;;
10031;SDS011;5056;44.272;19.892;2023-08-20T12:42:47;7.53;;;6.90;;
10031;SDS011;5056;44.272;19.892;2023-08-20T12:45:14;8.68;;;7.80;;
10031;SDS011;5056;44.272;19.892;2023-08-20T12:47:43;8.45;;;7.60;;
10031;SDS011;5056;44.272;19.892;2023-08-20T12:50:29;8.93;;;7.55;;
10031;SDS011;5056;44.272;19.892;2023-08-20T12:52:56;8.68;;;7.75;;
10031;SDS011;5056;44.272;19.892;2023-08-20T12:55:24;8.25;;;7.53;;
10031;SDS011;5056;44.272;19.892;2023-08-20T12:57:56;7.57;;;6.95;;
10031;SDS011;5056;44.272;19.892;2023-08-20T13:00:24;8.80;;;7.40;;
10031;SDS011;5056;44.272;19.892;2023-08-20T13:02:56;8.23;;;7.60;;
10031;SDS011;5056;44.272;19.892;2023-08-20T13:05:37;8.60;;;7.72;;
10031;SDS011;5056;44.272;19.892;2023-08-20T13:08:05;7.50;;;6.90;;
10031;SDS011;5056;44.272;19.892;2023-08-20T13:10:33;8.02;;;7.32;;
10031;SDS011;5056;44.272;19.892;2023-08-20T13:13:03;8.07;;;7.28;;
10031;SDS011;5056;44.272;19.892;2023-08-20T13:15:31;8.13;;;7.43;;
10031;SDS011;5056;44.272;19.892;2023-08-20T13:17:59;8.57;;;7.50;;
10031;SDS011;5056;44.272;19.892;2023-08-20T13:20:27;7.00;;;6.60;;
10031;SDS011;5056;44.272;19.892;2023-08-20T13:22:54;7.50;;;7.00;;
10031;SDS011;5056;44.272;19.892;2023-08-20T13:25:21;7.57;;;6.85;;
10031;SDS011;5056;44.272;19.892;2023-08-20T13:27:49;7.38;;;6.88;;
10031;SDS011;5056;44.272;19.892;2023-08-20T13:30:18;7.63;;;7.03;;
10031;SDS011;5056;44.272;19.892;2023-08-20T13:32:45;9.18;;;7.15;;
10031;SDS011;5056;44.272;19.892;2023-08-20T13:35:12;7.55;;;6.85;;
10031;SDS011;5056;44.272;19.892;2023-08-20T13:37:39;7.43;;;6.85;;
10031;SDS011;5056;44.272;19.892;2023-08-20T13:40:08;7.53;;;6.88;;
10031;SDS011;5056;44.272;19.892;2023-08-20T13:42:35;6.43;;;6.03;;
10031;SDS011;5056;44.272;19.892;2023-08-20T13:45:04;6.97;;;6.38;;
10031;SDS011;5056;44.272;19.892;2023-08-20T13:47:33;8.70;;;7.32;;
10031;SDS011;5056;44.272;19.892;2023-08-20T13:50:00;7.22;;;6.65;;
10031;SDS011;5056;44.272;19.892;2023-08-20T13:52:30;7.78;;;7.20;;
10031;SDS011;5056;44.272;19.892;2023-08-20T13:54:57;8.32;;;7.68;;
10031;SDS011;5056;44.272;19.892;2023-08-20T13:57:24;7.55;;;7.05;;
10031;SDS011;5056;44.272;19.892;2023-08-20T13:59:51;6.95;;;6.45;;
10031;SDS011;5056;44.272;19.892;2023-08-20T14:02:18;7.65;;;7.05;;
10031;SDS011;5056;44.272;19.892;2023-08-20T14:04:50;7.68;;;6.97;;
10031;SDS011;5056;44.272;19.892;2023-08-20T14:07:17;7.97;;;7.20;;
10031;SDS011;5056;44.272;19.892;2023-08-20T14:09:45;7.85;;;7.15;;
10031;SDS011;5056;44.272;19.892;2023-08-20T14:12:12;7.82;;;6.88;;
10031;SDS011;5056;44.272;19.892;2023-08-20T14:14:41;8.45;;;7.85;;
10031;SDS011;5056;44.272;19.892;2023-08-20T14:17:09;9.23;;;7.40;;
10031;SDS011;5056;44.272;19.892;2023-08-20T14:19:36;9.02;;;8.32;;
10031;SDS011;5056;44.272;19.892;2023-08-20T14:22:07;8.23;;;7.45;;
10031;SDS011;5056;44.272;19.892;2023-08-20T14:24:34;8.38;;;7.47;;
10031;SDS011;5056;44.272;19.892;2023-08-20T14:27:01;8.52;;;7.72;;
10031;SDS011;5056;44.272;19.892;2023-08-20T14:29:32;7.70;;;7.13;;
10031;SDS011;5056;44.272;19.892;2023-08-20T14:31:59;7.82;;;7.22;;
10031;SDS011;5056;44.272;19.892;2023-08-20T14:34:26;8.20;;;7.65;;
10031;SDS011;5056;44.272;19.892;2023-08-20T14:36:54;8.57;;;7.57;;
10031;SDS011;5056;44.272;19.892;2023-08-20T14:39:22;8.73;;;7.78;;
10031;SDS011;5056;44.272;19.892;2023-08-20T14:41:50;8.93;;;8.15;;
10031;SDS011;5056;44.272;19.892;2023-08-20T14:44:18;7.78;;;7.20;;
10031;SDS011;5056;44.272;19.892;2023-08-20T14:46:46;7.57;;;6.95;;
10031;SDS011;5056;44.272;19.892;2023-08-20T14:49:13;7.82;;;7.13;;
10031;SDS011;5056;44.272;19.892;2023-08-20T14:51:42;8.75;;;8.07;;
10031;SDS011;5056;44.272;19.892;2023-08-20T14:54:09;9.02;;;8.32;;
10031;SDS011;5056;44.272;19.892;2023-08-20T14:56:37;7.93;;;7.30;;
10031;SDS011;5056;44.272;19.892;2023-08-20T14:59:14;8.23;;;7.50;;
10031;SDS011;5056;44.272;19.892;2023-08-20T15:01:42;8.70;;;8.00;;
10031;SDS011;5056;44.272;19.892;2023-08-20T15:04:12;8.80;;;8.20;;
10031;SDS011;5056;44.272;19.892;2023-08-20T15:06:39;7.80;;;7.20;;
10031;SDS011;5056;44.272;19.892;2023-08-20T15:09:06;8.35;;;7.75;;
10031;SDS011;5056;44.272;19.892;2023-08-20T15:11:41;8.73;;;7.88;;
10031;SDS011;5056;44.272;19.892;2023-08-20T15:14:08;8.98;;;8.27;;